createdAt,value
2022-08-28T00:00:42.041Z,13.20
2022-08-28T00:10:50.181Z,13.20
2022-08-28T00:51:39.195Z,14.60
2022-08-28T01:01:48.002Z,13.70
2022-08-28T01:11:56.893Z,13.50
2022-08-28T01:22:03.872Z,14.60
2022-08-28T01:32:11.638Z,15.50
2022-08-28T01:42:18.807Z,15.70
2022-08-28T01:52:26.651Z,16.80
2022-08-28T02:02:33.953Z,15.50
2022-08-28T02:12:41.971Z,16.50
2022-08-28T02:22:49.409Z,15.90
2022-08-28T02:32:56.980Z,16.60
2022-08-28T02:43:04.532Z,21.40
2022-08-28T02:53:11.481Z,23.00
2022-08-28T03:03:18.761Z,20.40
2022-08-28T03:13:26.972Z,20.60
2022-08-28T03:23:35.087Z,20.10
2022-08-28T03:33:43.217Z,18.00
2022-08-28T03:43:51.308Z,18.70
2022-08-28T03:53:58.974Z,19.00
2022-08-28T04:04:05.303Z,18.40
2022-08-28T04:14:12.549Z,17.90
2022-08-28T04:24:20.242Z,18.60
2022-08-28T04:34:27.515Z,17.00
2022-08-28T04:44:34.958Z,19.10
2022-08-28T04:54:42.111Z,16.40
2022-08-28T05:04:49.662Z,17.10
2022-08-28T05:14:56.768Z,19.30
2022-08-28T05:25:04.628Z,19.50
2022-08-28T05:35:12.736Z,17.90
2022-08-28T05:45:23.017Z,17.00
2022-08-28T05:55:30.696Z,18.30
2022-08-28T06:15:43.461Z,18.70
2022-08-28T06:25:52.620Z,17.10
2022-08-28T06:36:00.503Z,17.90
2022-08-28T06:46:07.998Z,19.90
2022-08-28T06:56:26.026Z,18.80
2022-08-28T07:06:32.483Z,19.40
2022-08-28T07:16:40.580Z,18.80
2022-08-28T07:26:49.157Z,17.80
2022-08-28T07:36:58.439Z,16.30
2022-08-28T07:47:18.952Z,15.30
2022-08-28T07:57:32.284Z,14.50
2022-08-28T08:07:39.751Z,12.60
2022-08-28T08:17:49.491Z,9.00
2022-08-28T08:27:56.719Z,10.20
2022-08-28T08:38:04.131Z,9.00
2022-08-28T08:48:28.223Z,7.70
2022-08-28T08:58:38.053Z,7.60
2022-08-28T09:08:50.904Z,8.20
2022-08-28T09:18:58.589Z,9.60
2022-08-28T09:29:04.246Z,9.10
2022-08-28T09:39:12.943Z,9.60
2022-08-28T09:49:24.947Z,9.40
2022-08-28T09:59:33.471Z,9.40
2022-08-28T10:19:45.496Z,9.40
2022-08-28T10:29:50.980Z,10.60
2022-08-28T10:39:55.742Z,9.40
2022-08-28T10:50:03.818Z,10.20
2022-08-28T11:00:15.487Z,10.50
2022-08-28T11:10:25.679Z,10.60
2022-08-28T11:20:31.612Z,11.00
2022-08-28T11:30:39.189Z,12.10
2022-08-28T11:40:56.838Z,11.70
2022-08-28T11:51:07.427Z,7.20
2022-08-28T12:01:27.047Z,6.30
2022-08-28T12:11:53.119Z,5.90
2022-08-28T12:22:05.509Z,4.20
2022-08-28T12:32:30.584Z,3.90
2022-08-28T12:42:41.042Z,5.20
2022-08-28T12:52:49.262Z,4.20
2022-08-28T13:02:57.073Z,3.90
2022-08-28T13:13:08.414Z,5.30
2022-08-28T13:23:29.727Z,6.40
2022-08-28T13:33:36.952Z,6.80
2022-08-28T13:43:43.830Z,5.90
2022-08-28T13:53:51.187Z,4.80
2022-08-28T14:03:59.680Z,5.20
2022-08-28T14:24:13.330Z,6.00
2022-08-28T14:34:17.836Z,5.60
2022-08-28T14:44:24.699Z,6.40
2022-08-28T14:54:31.971Z,6.80
2022-08-28T15:04:39.350Z,7.10
2022-08-28T15:14:55.015Z,7.60
2022-08-28T15:25:03.523Z,7.10
2022-08-28T15:35:12.112Z,7.70
2022-08-28T15:45:20.387Z,11.30
2022-08-28T16:05:33.569Z,11.70
2022-08-28T16:15:43.939Z,8.20
2022-08-28T16:25:48.701Z,7.80
2022-08-28T16:56:08.552Z,8.80
2022-08-28T17:06:17.160Z,8.80
2022-08-28T17:16:23.968Z,8.80
2022-08-28T17:26:31.487Z,9.00
2022-08-28T17:36:40.132Z,11.40
2022-08-28T17:46:46.622Z,12.60
2022-08-28T17:56:54.913Z,13.40
2022-08-28T18:07:02.056Z,12.70
2022-08-28T18:17:09.962Z,12.30
2022-08-28T18:37:23.797Z,13.20
2022-08-28T18:47:31.083Z,12.90
2022-08-28T18:57:38.284Z,14.70
2022-08-28T19:07:45.635Z,13.10
2022-08-28T19:17:53.342Z,12.20
2022-08-28T19:28:01.359Z,10.90
2022-08-28T19:48:14.825Z,9.60
2022-08-28T19:58:22.431Z,10.00
2022-08-28T20:08:29.195Z,10.20
2022-08-28T20:18:36.400Z,9.60
2022-08-28T20:28:44.223Z,9.70
2022-08-28T20:38:51.479Z,8.60
2022-08-28T20:48:58.642Z,7.80
2022-08-28T20:59:05.779Z,6.50
2022-08-28T21:09:13.479Z,6.00
2022-08-28T21:19:20.673Z,6.00
2022-08-28T21:29:28.096Z,5.80
2022-08-28T21:39:35.912Z,5.40
2022-08-28T21:49:43.092Z,5.80
2022-08-28T21:59:50.269Z,6.80
2022-08-28T22:09:57.818Z,4.70
2022-08-28T22:20:05.690Z,5.00
2022-08-28T22:40:20.351Z,11.90
2022-08-28T23:00:34.454Z,14.80
2022-08-28T23:10:58.663Z,13.80
2022-08-28T23:21:07.991Z,13.20
2022-08-28T23:31:15.591Z,12.90
2022-08-28T23:41:22.905Z,13.90
2022-08-28T23:51:31.292Z,13.20
